La Porte, TX

8:24 PM CST on February 08, 2016 (GMT -0600)
Fairmont Park | | Change Station
CLOSE
Current Station
Personal Weather Station
Location: La Porte, TX
Elevation: 33 ft
Nearby Weather Stations

Elev 33 ft 29.65 °N, 95.07 °W | Updated 8 minutes ago

Partly Cloudy
Partly Cloudy
54.9 °F
Feels Like 54.9 °F
N
4.2
Wind Variable Wind from North

Today
High -- | Low -- °F
--% Chance of Precip.
Yesterday
High -- | Low -- °F
Precip. -- in
Pressure 30.28 in
Visibility 10.0 miles
Clouds Scattered Clouds 25000 ft
Dew Point 16 °F
Humidity 21%
Rainfall 0.00 in
Snow Depth Not available.
7:05 AM 6:03 PM
New Moon, 0% visible
METAR KEFD 090150Z 30011KT 10SM SCT250 13/M11 A3028
Pressure 30.28 in
Visibility 10.0 miles
Clouds Scattered Clouds 25000 ft
Dew Point 16 °F
Humidity 21%
Rainfall 0.00 in
Snow Depth Not available.
7:05 AM 6:03 PM
New Moon, 0% visible
METAR KEFD 090150Z 30011KT 10SM SCT250 13/M11 A3028

10-Day Weather Forecast

Almanac

Astronomy

Feb. 08, 2016 Rise Set
Actual Time
Civil Twilight
Nautical Twilight
Astronomical Twilight
Moon
Length of Visible Light
Length of Day
Tomorrow will be .
, % of the Moon is Illuminated

Today's Extremes

State Highs State Lows

Community

WunderPhotos

Upload Photos

1,891,527 photos uploaded!

WunderBlog® & News

Nearby

Air Quality

  Air Quality AQ Index Pollutant
Not available.

Snow Depth

Station Depth Elevation

Earthquake Activity

City Distance Mag. Time & Date
Minimum magnitude displayed is 2.5.

Coastal Water Temperatures

Place Temperature

Stations

Nearby Weather Stations

Station Location Temp. Windchill Dew Point Humidity Wind Precip. Elev Updated Type
                   

Watches & Warnings

There are currently no watches in effect.